createdAt,value
2023-04-02T00:01:38.113Z,2.58
2023-04-02T00:04:14.271Z,2.79
2023-04-02T00:06:45.152Z,2.79
2023-04-02T00:09:14.457Z,2.64
2023-04-02T00:11:42.269Z,2.70
2023-04-02T00:14:17.913Z,2.71
2023-04-02T00:16:45.506Z,2.74
2023-04-02T00:19:18.313Z,2.87
2023-04-02T00:21:46.016Z,2.93
2023-04-02T00:24:17.569Z,2.85
2023-04-02T00:26:45.641Z,2.53
2023-04-02T00:29:13.520Z,2.54
2023-04-02T00:31:44.518Z,2.60
2023-04-02T00:34:17.299Z,2.92
2023-04-02T00:36:44.181Z,2.55
2023-04-02T00:39:15.987Z,2.57
2023-04-02T00:41:47.197Z,2.60
2023-04-02T00:44:15.549Z,2.47
2023-04-02T00:46:49.922Z,2.53
2023-04-02T00:49:28.385Z,2.60
2023-04-02T00:51:57.412Z,2.54
2023-04-02T00:54:25.726Z,2.56
2023-04-02T00:56:53.570Z,2.66
2023-04-02T00:59:19.962Z,2.59
2023-04-02T01:01:59.416Z,2.56
2023-04-02T01:04:27.384Z,2.72
2023-04-02T01:06:54.081Z,2.60
2023-04-02T01:09:46.934Z,2.65
2023-04-02T01:12:19.513Z,2.62
2023-04-02T01:15:07.721Z,2.60
2023-04-02T01:17:37.088Z,2.77
2023-04-02T01:20:10.370Z,2.50
2023-04-02T01:22:42.579Z,2.51
2023-04-02T01:25:13.608Z,2.54
2023-04-02T01:27:44.080Z,2.79
2023-04-02T01:30:12.503Z,2.51
2023-04-02T01:32:39.490Z,2.58
2023-04-02T01:35:06.191Z,2.60
2023-04-02T01:37:40.240Z,2.70
2023-04-02T01:40:14.550Z,2.69
2023-04-02T01:42:53.224Z,2.77
2023-04-02T01:45:21.875Z,2.69
2023-04-02T01:47:48.870Z,2.92
2023-04-02T01:50:33.906Z,2.70
2023-04-02T01:53:02.725Z,2.60
2023-04-02T01:55:40.446Z,2.64
2023-04-02T01:58:07.575Z,2.57
2023-04-02T02:00:36.240Z,2.53
2023-04-02T02:03:03.743Z,2.50
2023-04-02T02:05:30.214Z,2.65
2023-04-02T02:07:57.279Z,2.53
2023-04-02T02:10:26.521Z,2.65
2023-04-02T02:12:53.014Z,2.46
2023-04-02T02:15:21.064Z,2.61
2023-04-02T02:17:47.828Z,2.65
2023-04-02T02:20:14.915Z,2.78
2023-04-02T02:22:45.795Z,2.59
2023-04-02T02:25:15.855Z,2.70
2023-04-02T02:27:42.210Z,2.89
2023-04-02T02:30:18.324Z,2.53
2023-04-02T02:32:51.723Z,2.83
2023-04-02T02:35:21.864Z,2.83
2023-04-02T02:37:52.991Z,2.91
2023-04-02T02:40:27.576Z,2.95
2023-04-02T02:42:59.700Z,2.99
2023-04-02T02:45:28.173Z,2.96
2023-04-02T02:47:55.384Z,2.94
2023-04-02T02:50:31.746Z,3.04
2023-04-02T02:52:59.332Z,3.08
2023-04-02T02:55:32.643Z,3.23
2023-04-02T02:58:04.482Z,3.05
2023-04-02T03:00:32.072Z,3.05
2023-04-02T03:02:58.599Z,3.24
2023-04-02T03:05:26.680Z,3.23
2023-04-02T03:07:55.530Z,3.24
2023-04-02T03:10:24.841Z,3.28
2023-04-02T03:13:09.618Z,2.99
2023-04-02T03:15:41.326Z,2.82
2023-04-02T03:18:13.419Z,2.75
2023-04-02T03:20:52.393Z,2.90
2023-04-02T03:23:35.239Z,3.11
2023-04-02T03:26:04.328Z,2.82
2023-04-02T03:28:33.094Z,3.02
2023-04-02T03:30:59.466Z,2.95
2023-04-02T03:33:28.887Z,2.74
2023-04-02T03:35:55.613Z,2.64
2023-04-02T03:38:25.134Z,2.65
2023-04-02T03:41:03.700Z,2.93
2023-04-02T03:43:52.703Z,2.90
2023-04-02T03:46:19.100Z,2.85
2023-04-02T03:48:51.672Z,3.02
2023-04-02T03:51:20.836Z,2.85
2023-04-02T03:53:47.965Z,2.73
2023-04-02T03:56:23.155Z,2.47
2023-04-02T03:58:55.079Z,2.68
2023-04-02T04:01:31.247Z,2.84
2023-04-02T04:04:03.275Z,2.74
2023-04-02T04:06:31.731Z,2.74
2023-04-02T04:09:00.377Z,2.80
2023-04-02T04:11:30.534Z,2.91
2023-04-02T04:14:03.191Z,2.99
2023-04-02T04:16:32.758Z,3.12
2023-04-02T04:19:11.011Z,2.84
2023-04-02T04:21:37.634Z,2.79
2023-04-02T04:24:05.940Z,2.71
2023-04-02T04:26:39.569Z,2.90
2023-04-02T04:29:24.630Z,2.72
2023-04-02T04:31:55.292Z,2.58
2023-04-02T04:34:25.357Z,2.93
2023-04-02T04:36:57.468Z,3.08
2023-04-02T04:39:31.959Z,2.79
2023-04-02T04:42:00.624Z,3.03
2023-04-02T04:44:49.497Z,2.67
2023-04-02T04:47:20.919Z,2.75
2023-04-02T04:50:05.526Z,2.72
2023-04-02T04:52:39.355Z,2.90
2023-04-02T04:55:25.426Z,2.85
2023-04-02T04:57:55.734Z,2.99
2023-04-02T05:00:35.763Z,2.84
2023-04-02T05:03:21.016Z,2.82
2023-04-02T05:05:51.747Z,3.14
2023-04-02T05:08:27.255Z,2.91
2023-04-02T05:11:05.975Z,2.69
2023-04-02T05:13:39.222Z,2.97
2023-04-02T05:16:16.197Z,3.03
2023-04-02T05:19:00.869Z,2.77
2023-04-02T05:21:33.982Z,2.88
2023-04-02T05:24:20.677Z,3.04
2023-04-02T05:26:50.032Z,3.09
2023-04-02T05:29:20.081Z,2.97
2023-04-02T05:32:04.807Z,2.89
2023-04-02T05:34:33.160Z,2.72
2023-04-02T05:36:59.646Z,2.85
2023-04-02T05:39:27.014Z,2.92
2023-04-02T05:42:00.564Z,3.18
2023-04-02T05:44:31.382Z,3.08
2023-04-02T05:47:00.368Z,3.37
2023-04-02T05:49:47.056Z,2.90
2023-04-02T05:52:24.096Z,2.72
2023-04-02T05:54:59.270Z,3.15
2023-04-02T05:57:42.866Z,3.10
2023-04-02T06:00:17.583Z,3.09
2023-04-02T06:02:53.652Z,3.21
2023-04-02T06:05:23.892Z,3.05
2023-04-02T06:08:03.516Z,3.30
2023-04-02T06:10:32.642Z,3.36
2023-04-02T06:13:03.754Z,2.96
2023-04-02T06:15:31.824Z,3.19
2023-04-02T06:18:06.751Z,3.17
2023-04-02T06:20:44.151Z,3.10
2023-04-02T06:23:24.373Z,3.31
2023-04-02T06:26:12.403Z,3.26
2023-04-02T06:28:47.901Z,3.31
2023-04-02T06:31:33.333Z,3.81
2023-04-02T06:33:59.943Z,3.87
2023-04-02T06:36:27.257Z,3.99
2023-04-02T06:38:56.022Z,4.21
2023-04-02T06:41:24.086Z,3.94
2023-04-02T06:43:53.725Z,4.00
2023-04-02T06:46:35.828Z,3.87
2023-04-02T06:49:13.728Z,3.88
2023-04-02T06:51:41.062Z,4.17
2023-04-02T06:54:12.894Z,3.80
2023-04-02T06:56:44.896Z,3.90
2023-04-02T06:59:12.819Z,3.78
2023-04-02T07:01:46.443Z,3.96
2023-04-02T07:04:12.854Z,4.32
2023-04-02T07:06:39.328Z,4.27
2023-04-02T07:09:06.884Z,4.06
2023-04-02T07:11:33.329Z,3.84
2023-04-02T07:13:59.898Z,3.79
2023-04-02T07:16:27.571Z,3.65
2023-04-02T07:18:58.892Z,3.66
2023-04-02T07:21:26.613Z,3.87
2023-04-02T07:23:53.621Z,3.78
2023-04-02T07:26:22.359Z,3.80
2023-04-02T07:28:48.985Z,3.74
2023-04-02T07:31:20.055Z,3.97
2023-04-02T07:33:46.871Z,3.87
2023-04-02T07:36:23.607Z,4.24
2023-04-02T07:38:50.420Z,3.97
2023-04-02T07:41:16.942Z,3.88
2023-04-02T07:43:43.680Z,4.12
2023-04-02T07:46:10.933Z,4.03
2023-04-02T07:48:37.369Z,4.24
2023-04-02T07:51:03.865Z,4.37
2023-04-02T07:53:31.767Z,4.42
2023-04-02T07:56:03.019Z,4.29
2023-04-02T07:58:30.601Z,4.24
2023-04-02T08:00:57.346Z,4.41
2023-04-02T08:03:23.986Z,4.42
2023-04-02T08:05:51.610Z,4.32
2023-04-02T08:08:18.002Z,4.35
2023-04-02T08:10:44.477Z,4.44
2023-04-02T08:13:10.911Z,4.35
2023-04-02T08:15:37.596Z,4.57
2023-04-02T08:18:04.437Z,4.46
2023-04-02T08:20:31.030Z,4.42
2023-04-02T08:22:58.303Z,4.80
2023-04-02T08:25:24.735Z,4.82
2023-04-02T08:27:51.258Z,4.70
2023-04-02T08:30:17.944Z,4.49
2023-04-02T08:32:44.497Z,4.25
2023-04-02T08:35:12.177Z,4.33
2023-04-02T08:37:38.620Z,4.22
2023-04-02T08:40:06.827Z,3.79
2023-04-02T08:42:49.515Z,3.46
2023-04-02T08:45:25.099Z,4.12
2023-04-02T08:47:55.475Z,4.38
2023-04-02T08:50:25.187Z,4.76
2023-04-02T08:52:51.828Z,4.88
2023-04-02T08:55:27.093Z,5.33
2023-04-02T08:58:01.825Z,5.54
2023-04-02T09:00:34.134Z,5.59
2023-04-02T09:03:02.567Z,6.03
2023-04-02T09:05:33.974Z,6.32
2023-04-02T09:08:02.729Z,5.79
2023-04-02T09:10:37.576Z,5.64
2023-04-02T09:13:08.638Z,5.95
2023-04-02T09:15:36.722Z,6.15
2023-04-02T09:18:16.161Z,6.20
2023-04-02T09:20:52.292Z,6.61
2023-04-02T09:23:21.067Z,6.66
2023-04-02T09:26:02.917Z,6.74
2023-04-02T09:28:36.324Z,6.75
2023-04-02T09:31:03.332Z,6.78
2023-04-02T09:33:44.187Z,6.15
2023-04-02T09:36:33.552Z,6.12
2023-04-02T09:39:06.398Z,6.14
2023-04-02T09:41:37.170Z,5.45
2023-04-02T09:44:21.251Z,5.72
2023-04-02T09:46:49.485Z,5.70
2023-04-02T09:49:23.866Z,5.77
2023-04-02T09:52:20.019Z,5.86
2023-04-02T09:54:47.731Z,6.13
2023-04-02T09:57:21.234Z,6.50
2023-04-02T09:59:47.896Z,6.21
2023-04-02T10:02:25.055Z,6.03
2023-04-02T10:04:51.748Z,5.67
2023-04-02T10:07:34.644Z,6.02
2023-04-02T10:10:02.368Z,5.64
2023-04-02T10:12:30.351Z,5.75
2023-04-02T10:15:01.447Z,5.95
2023-04-02T10:17:30.544Z,6.16
2023-04-02T10:20:06.284Z,6.61
2023-04-02T10:22:32.798Z,6.87
2023-04-02T10:24:59.532Z,6.89
2023-04-02T10:27:29.790Z,7.02
2023-04-02T10:30:05.610Z,6.86
2023-04-02T10:32:36.912Z,6.39
2023-04-02T10:35:11.495Z,6.84
2023-04-02T10:37:56.311Z,7.17
2023-04-02T10:40:37.657Z,7.34
2023-04-02T10:43:07.267Z,7.27
2023-04-02T10:45:51.069Z,7.00
2023-04-02T10:48:26.681Z,7.02
2023-04-02T10:51:01.150Z,6.90
2023-04-02T10:53:36.691Z,7.05
2023-04-02T10:56:05.707Z,6.80
2023-04-02T10:58:35.805Z,6.79
2023-04-02T11:01:11.307Z,6.81
2023-04-02T11:03:41.674Z,6.62
2023-04-02T11:06:23.869Z,6.56
2023-04-02T11:08:52.455Z,7.08
2023-04-02T11:11:21.474Z,7.11
2023-04-02T11:13:59.345Z,7.15
2023-04-02T11:16:39.426Z,7.28
2023-04-02T11:19:10.650Z,7.44
2023-04-02T11:21:47.632Z,7.43
2023-04-02T11:24:32.924Z,8.02
2023-04-02T11:27:25.120Z,7.84
2023-04-02T11:29:51.682Z,7.38
2023-04-02T11:32:25.444Z,7.51
2023-04-02T11:35:06.501Z,7.32
2023-04-02T11:37:37.238Z,7.14
2023-04-02T11:40:14.136Z,7.05
2023-04-02T11:42:41.536Z,7.27
2023-04-02T11:45:46.516Z,7.25
2023-04-02T11:48:21.866Z,7.32
2023-04-02T11:50:48.557Z,7.53
2023-04-02T11:53:15.024Z,7.56
2023-04-02T11:55:42.490Z,7.39
2023-04-02T11:58:11.933Z,7.64
2023-04-02T12:00:50.499Z,7.42
2023-04-02T12:03:30.174Z,7.05
2023-04-02T12:06:10.957Z,7.04
2023-04-02T12:08:54.363Z,7.12
2023-04-02T12:11:35.157Z,7.49
2023-04-02T12:14:03.192Z,7.16
2023-04-02T12:16:33.468Z,7.46
2023-04-02T12:19:01.254Z,8.07
2023-04-02T12:21:28.842Z,8.56
2023-04-02T12:23:57.468Z,8.80
2023-04-02T12:26:26.620Z,8.64
2023-04-02T12:28:53.468Z,7.98
2023-04-02T12:31:21.925Z,8.41
2023-04-02T12:33:51.434Z,8.42
2023-04-02T12:36:19.717Z,8.41
2023-04-02T12:38:51.285Z,8.41
2023-04-02T12:41:24.448Z,7.82
2023-04-02T12:43:59.762Z,8.26
2023-04-02T12:46:26.825Z,8.44
2023-04-02T12:48:54.518Z,8.42
2023-04-02T12:51:25.320Z,8.29
2023-04-02T12:53:53.079Z,7.88
2023-04-02T12:56:21.742Z,8.08
2023-04-02T12:58:54.209Z,8.13
2023-04-02T13:01:23.792Z,8.19
2023-04-02T13:04:12.217Z,7.82
2023-04-02T13:06:39.684Z,7.97
2023-04-02T13:09:07.442Z,8.17
2023-04-02T13:11:38.090Z,8.14
2023-04-02T13:14:05.861Z,8.38
2023-04-02T13:16:39.955Z,8.26
2023-04-02T13:19:21.494Z,8.23
2023-04-02T13:21:47.957Z,7.99
2023-04-02T13:24:18.490Z,7.83
2023-04-02T13:26:45.222Z,8.04
2023-04-02T13:29:26.962Z,8.07
2023-04-02T13:31:55.039Z,8.04
2023-04-02T13:34:21.876Z,7.67
2023-04-02T13:36:48.544Z,7.55
2023-04-02T13:39:15.214Z,8.09
2023-04-02T13:41:41.834Z,8.11
2023-04-02T13:44:14.823Z,8.08
2023-04-02T13:46:41.190Z,7.96
2023-04-02T13:49:09.389Z,7.58
2023-04-02T13:51:37.303Z,7.46
2023-04-02T13:54:06.222Z,8.03
2023-04-02T13:56:33.361Z,8.16
2023-04-02T13:58:59.724Z,7.94
2023-04-02T14:01:26.288Z,7.66
2023-04-02T14:03:54.249Z,7.97
2023-04-02T14:06:26.545Z,7.99
2023-04-02T14:09:05.023Z,8.46
2023-04-02T14:11:51.228Z,8.45
2023-04-02T14:14:23.674Z,7.61
2023-04-02T14:16:55.792Z,7.41
2023-04-02T14:19:31.048Z,8.05
2023-04-02T14:22:03.420Z,8.05
2023-04-02T14:24:29.839Z,8.05
2023-04-02T14:27:15.001Z,7.72
2023-04-02T14:29:46.818Z,7.71
2023-04-02T14:32:36.152Z,7.82
2023-04-02T14:35:17.050Z,8.10
2023-04-02T14:37:59.496Z,7.98
2023-04-02T14:40:46.356Z,7.67
2023-04-02T14:43:23.804Z,7.49
2023-04-02T14:45:58.054Z,7.46
2023-04-02T14:48:30.472Z,7.36
2023-04-02T14:51:03.663Z,7.12
2023-04-02T14:53:48.805Z,7.01
2023-04-02T14:56:15.800Z,7.47
2023-04-02T14:58:48.732Z,7.60
2023-04-02T15:01:31.878Z,7.43
2023-04-02T15:04:02.260Z,7.17
2023-04-02T15:06:34.331Z,7.28
2023-04-02T15:09:09.420Z,7.10
2023-04-02T15:11:37.903Z,6.86
2023-04-02T15:14:04.252Z,7.11
2023-04-02T15:16:33.282Z,6.89
2023-04-02T15:19:00.916Z,6.61
2023-04-02T15:21:29.432Z,6.76
2023-04-02T15:24:17.270Z,6.54
2023-04-02T15:26:43.563Z,6.64
2023-04-02T15:29:29.594Z,6.57
2023-04-02T15:32:15.030Z,6.60
2023-04-02T15:35:00.324Z,6.45
2023-04-02T15:37:32.266Z,6.22
2023-04-02T15:40:05.460Z,6.19
2023-04-02T15:42:39.725Z,6.30
2023-04-02T15:45:12.247Z,6.67
2023-04-02T15:50:34.412Z,7.07
2023-04-02T15:53:09.546Z,7.14
2023-04-02T15:55:59.569Z,6.95
2023-04-02T15:58:41.130Z,6.46
2023-04-02T16:01:26.479Z,6.11
2023-04-02T16:04:02.184Z,5.92
2023-04-02T16:06:43.629Z,5.82
2023-04-02T16:09:30.885Z,6.08
2023-04-02T16:12:00.467Z,6.07
2023-04-02T16:14:31.306Z,5.99
2023-04-02T16:17:03.867Z,6.00
2023-04-02T16:19:50.569Z,6.03
2023-04-02T16:22:20.357Z,5.93
2023-04-02T16:24:48.871Z,5.60
2023-04-02T16:27:33.309Z,5.64
2023-04-02T16:32:52.539Z,5.90
2023-04-02T16:38:39.531Z,5.72
2023-04-02T16:41:09.287Z,5.54
2023-04-02T16:43:55.304Z,5.46
2023-04-02T16:46:39.644Z,5.19
2023-04-02T16:49:37.585Z,5.40
2023-04-02T16:52:34.077Z,5.33
2023-04-02T16:55:13.020Z,5.34
2023-04-02T16:57:57.625Z,5.57
2023-04-02T17:00:33.768Z,5.16
2023-04-02T17:03:38.161Z,5.07
2023-04-02T17:06:32.083Z,4.72
2023-04-02T17:09:08.135Z,4.95
2023-04-02T17:11:47.564Z,4.78
2023-04-02T17:14:42.531Z,4.92
2023-04-02T17:17:15.889Z,4.77
2023-04-02T17:19:44.472Z,4.58
2023-04-02T17:22:20.761Z,4.66
2023-04-02T17:24:57.714Z,4.66
2023-04-02T17:27:35.470Z,4.71
2023-04-02T17:30:15.475Z,4.73
2023-04-02T17:32:42.731Z,4.38
2023-04-02T17:35:42.292Z,4.66
2023-04-02T17:38:20.087Z,4.43
2023-04-02T17:40:54.157Z,4.21
2023-04-02T17:43:47.470Z,4.28
2023-04-02T17:46:48.261Z,4.22
2023-04-02T17:49:40.559Z,4.50
2023-04-02T17:52:29.950Z,4.07
2023-04-02T17:55:11.771Z,4.18
2023-04-02T17:58:01.506Z,4.00
2023-04-02T18:00:54.633Z,4.04
2023-04-02T18:03:49.836Z,4.12
2023-04-02T18:06:22.480Z,3.93
2023-04-02T18:09:15.311Z,3.54
2023-04-02T18:12:20.908Z,3.58
2023-04-02T18:14:55.830Z,4.08
2023-04-02T18:17:50.467Z,3.76
2023-04-02T18:20:38.372Z,3.63
2023-04-02T18:24:01.758Z,3.50
2023-04-02T18:26:55.332Z,3.81
2023-04-02T18:29:27.466Z,3.58
2023-04-02T18:32:31.509Z,3.70
2023-04-02T18:35:21.096Z,3.53
2023-04-02T18:38:16.528Z,3.62
2023-04-02T18:41:02.176Z,3.55
2023-04-02T18:43:49.003Z,3.61
2023-04-02T18:46:58.243Z,3.65
2023-04-02T18:49:45.654Z,3.90
2023-04-02T18:52:18.401Z,3.50
2023-04-02T18:54:55.711Z,3.52
2023-04-02T18:57:24.258Z,3.29
2023-04-02T19:00:06.417Z,3.19
2023-04-02T19:02:48.928Z,3.11
2023-04-02T19:05:34.150Z,3.03
2023-04-02T19:08:38.608Z,3.26
2023-04-02T19:11:18.316Z,3.15
2023-04-02T19:13:49.089Z,3.21
2023-04-02T19:16:33.865Z,3.27
2023-04-02T19:19:26.918Z,3.38
2023-04-02T19:22:09.234Z,3.14
2023-04-02T19:25:15.935Z,2.78
2023-04-02T19:27:58.215Z,2.74
2023-04-02T19:30:51.463Z,2.84
2023-04-02T19:33:38.305Z,2.62
2023-04-02T19:36:18.771Z,2.70
2023-04-02T19:38:53.712Z,2.69
2023-04-02T19:41:47.978Z,2.54
2023-04-02T19:44:21.405Z,2.32
2023-04-02T19:46:48.403Z,2.58
2023-04-02T19:49:22.854Z,2.32
2023-04-02T19:52:06.875Z,2.65
2023-04-02T19:54:33.530Z,2.30
2023-04-02T19:57:01.677Z,2.53
2023-04-02T19:59:29.259Z,2.36
2023-04-02T20:01:55.944Z,2.00
2023-04-02T20:04:22.528Z,2.44
2023-04-02T20:06:54.625Z,2.26
2023-04-02T20:09:21.866Z,1.85
2023-04-02T20:11:51.466Z,2.04
2023-04-02T20:14:22.423Z,1.95
2023-04-02T20:16:58.227Z,2.04
2023-04-02T20:19:25.012Z,2.03
2023-04-02T20:21:52.667Z,1.84
2023-04-02T20:24:19.200Z,1.93
2023-04-02T20:26:45.932Z,2.07
2023-04-02T20:29:12.441Z,1.98
2023-04-02T20:31:38.955Z,1.93
2023-04-02T20:34:11.194Z,1.90
2023-04-02T20:36:43.752Z,1.79
2023-04-02T20:39:12.095Z,1.90
2023-04-02T20:41:38.586Z,1.95
2023-04-02T20:44:05.040Z,1.78
2023-04-02T20:46:34.295Z,1.60
2023-04-02T20:49:02.243Z,1.79
2023-04-02T20:51:28.752Z,1.75
2023-04-02T20:53:55.596Z,1.65
2023-04-02T20:56:26.584Z,1.84
2023-04-02T20:58:53.219Z,1.71
2023-04-02T21:01:21.247Z,1.50
2023-04-02T21:03:48.573Z,1.40
2023-04-02T21:06:21.636Z,1.49
2023-04-02T21:08:48.812Z,1.66
2023-04-02T21:11:16.333Z,1.49
2023-04-02T21:13:44.215Z,1.74
2023-04-02T21:16:14.419Z,1.48
2023-04-02T21:18:41.060Z,1.48
2023-04-02T21:21:08.116Z,1.32
2023-04-02T21:23:34.748Z,1.38
2023-04-02T21:26:02.989Z,1.87
2023-04-02T21:28:29.678Z,1.24
2023-04-02T21:31:03.716Z,1.45
2023-04-02T21:33:31.549Z,1.32
2023-04-02T21:36:06.025Z,1.65
2023-04-02T21:38:33.605Z,1.26
2023-04-02T21:41:11.323Z,1.66
2023-04-02T21:43:38.150Z,1.67
2023-04-02T21:46:04.885Z,1.70
2023-04-02T21:48:35.252Z,1.62
2023-04-02T21:51:10.908Z,1.25
2023-04-02T21:53:38.115Z,1.27
2023-04-02T21:56:07.313Z,1.49
2023-04-02T21:58:34.760Z,1.53
2023-04-02T22:01:01.869Z,1.57
2023-04-02T22:03:31.967Z,1.70
2023-04-02T22:06:12.196Z,1.92
2023-04-02T22:08:40.278Z,1.75
2023-04-02T22:11:18.595Z,1.36
2023-04-02T22:13:47.326Z,1.26
2023-04-02T22:16:19.649Z,1.16
2023-04-02T22:18:46.641Z,1.10
2023-04-02T22:21:14.286Z,1.30
2023-04-02T22:23:41.361Z,0.91
2023-04-02T22:26:14.285Z,1.04
2023-04-02T22:28:40.852Z,1.19
2023-04-02T22:31:08.907Z,1.19
2023-04-02T22:33:36.303Z,0.83
2023-04-02T22:36:03.216Z,1.22
2023-04-02T22:38:30.396Z,0.99
2023-04-02T22:41:16.553Z,1.26
2023-04-02T22:43:44.502Z,1.17
2023-04-02T22:46:13.685Z,0.84
2023-04-02T22:48:40.511Z,0.80
2023-04-02T22:51:08.917Z,1.20
2023-04-02T22:53:36.669Z,0.93
2023-04-02T22:56:07.024Z,0.81
2023-04-02T22:58:34.288Z,0.79
2023-04-02T23:01:06.300Z,0.60
2023-04-02T23:03:32.818Z,0.79
2023-04-02T23:06:07.450Z,0.90
2023-04-02T23:08:35.278Z,1.04
2023-04-02T23:11:04.144Z,0.72
2023-04-02T23:13:31.482Z,0.78
2023-04-02T23:15:58.069Z,0.97
2023-04-02T23:18:24.452Z,1.22
2023-04-02T23:20:50.859Z,0.66
2023-04-02T23:23:17.313Z,0.90
2023-04-02T23:25:43.745Z,1.08
2023-04-02T23:28:12.893Z,1.24
2023-04-02T23:30:41.746Z,0.90
2023-04-02T23:33:08.261Z,0.82
2023-04-02T23:35:35.318Z,0.98
2023-04-02T23:38:01.848Z,0.82
2023-04-02T23:40:28.437Z,1.13
2023-04-02T23:42:54.872Z,1.31
2023-04-02T23:45:21.308Z,1.05
2023-04-02T23:47:47.802Z,0.90
2023-04-02T23:50:14.265Z,1.11
2023-04-02T23:52:40.933Z,1.03
2023-04-02T23:55:07.520Z,1.01
2023-04-02T23:57:34.023Z,0.93
